Terminal Aerodrome Forecast
Issued by NWS

Home | Current Version | Previous Version | Text Only | Print | Product List | Glossary On
Versions: 1 2 3 4 5 6 7 8 9 10 11 12 13 14 15 16 17 18 19 20
000
FTUS45 KRIW 012300
TAFCPR
TAF
KCPR 012327Z 0200/0224 36008KT P6SM VCSH SCT020 BKN040
      TEMPO 0200/0202 -SHRA BKN028
     FM020200 33007KT P6SM VCSH BKN050
     FM020600 24007KT P6SM SCT050
     FM021200 23012G18KT P6SM FEW050
     FM022000 30012G18KT P6SM SCT050
     FM022300 02014KT P6SM BKN050=

USA.gov is the U.S. government's official web portal to all federal, state and local government web resources and services.